Accueil
METAR-TAF:

METAR-TAF

Aéroports :

Craiova, Roumanie

latitude: 44-14N, longitude: 023-52E, altitude: 192 m

Observation

Le bulletin a été fait il y a 14 minutes, à 09:30 UTC
Vent 8 kt de ouest/sud-ouest, variant entre sud-ouest et ouest
Température 27°C
Humidité 51%
Pression 1014 hPa
Visibilité 10 km ou plus
Quelques nuages à une hauteur de 4000 ft

METAR: LRCV 130930Z 25008KT 220V280 9999 FEW040 27/16 Q1014

Heure: 12:44 (09:44 UTC)

Prévision

Le bulletin a été fait il y a 1 heure et 44 minutes, à 08:00 UTC
Prévision valable du 13 à 09 UTC au 13 à 18 UTC
Vent 6 kt de ouest
Visibilité 10 km ou plus
pas de nuages en-dessous de 1500 mètres et pas de cumulonimbus.
Probabilité 30% :
Temporairement
du 13 à 15 UTC au 13 à 18 UTC
Vent 26 kt de direction variable
Visibilité: 3000 m
Nuages épars à une hauteur de 4000 ft, Cumulonimbus.
orage, pluie,

TAF: LRCV 130800Z 1309/1318 26006KT CAVOK PROB30 TEMPO 1315/1318 VRB26KT 3000 TSRA SCT040CB

Observations et prévisions météorologiques de plus de 4000 aéroports (messages METAR et TAF).

Les stations disponibles sont représentées par des disques jaunes et rouges sur la carte.

Passer la souris dessus pour voir le nom de la station.

Cliquer dessus pour voir les observations et prévisions météorologiques.

Pour changer de carte: cliquez sur les boutons verts avec une croix noire pour zoomer, sur le bouton vert avec un tiret pour effectuer un zoom arrière, ou sur les flèches vertes pour les cartes adjacentes.


METAR-TAF: